sensor_id;sensor_type;location;lat;lon;timestamp;P1;durP1;ratioP1;P2;durP2;ratioP2
75820;SDS011;64454;51.984;9.838;2023-07-31T00:00:25;2.40;;;1.38;;
75820;SDS011;64454;51.984;9.838;2023-07-31T00:02:52;2.90;;;1.47;;
75820;SDS011;64454;51.984;9.838;2023-07-31T00:05:20;3.40;;;1.30;;
75820;SDS011;64454;51.984;9.838;2023-07-31T00:07:47;3.60;;;1.48;;
75820;SDS011;64454;51.984;9.838;2023-07-31T00:10:16;4.73;;;1.60;;
75820;SDS011;64454;51.984;9.838;2023-07-31T00:12:44;3.45;;;1.20;;
75820;SDS011;64454;51.984;9.838;2023-07-31T00:15:12;3.70;;;1.10;;
75820;SDS011;64454;51.984;9.838;2023-07-31T00:17:40;2.70;;;1.20;;
75820;SDS011;64454;51.984;9.838;2023-07-31T00:20:07;2.20;;;1.10;;
75820;SDS011;64454;51.984;9.838;2023-07-31T00:22:35;2.30;;;1.00;;
75820;SDS011;64454;51.984;9.838;2023-07-31T00:25:03;2.30;;;1.17;;
75820;SDS011;64454;51.984;9.838;2023-07-31T00:27:32;1.58;;;0.82;;
75820;SDS011;64454;51.984;9.838;2023-07-31T00:29:59;3.10;;;1.05;;
75820;SDS011;64454;51.984;9.838;2023-07-31T00:32:26;1.80;;;1.00;;
75820;SDS011;64454;51.984;9.838;2023-07-31T00:34:53;1.75;;;0.90;;
75820;SDS011;64454;51.984;9.838;2023-07-31T00:37:20;1.80;;;0.95;;
75820;SDS011;64454;51.984;9.838;2023-07-31T00:39:48;1.60;;;0.77;;
75820;SDS011;64454;51.984;9.838;2023-07-31T00:42:15;2.17;;;1.10;;
75820;SDS011;64454;51.984;9.838;2023-07-31T00:44:43;2.30;;;0.80;;
75820;SDS011;64454;51.984;9.838;2023-07-31T00:47:10;1.40;;;0.95;;
75820;SDS011;64454;51.984;9.838;2023-07-31T00:49:37;1.70;;;1.17;;
75820;SDS011;64454;51.984;9.838;2023-07-31T00:52:05;3.03;;;1.15;;
75820;SDS011;64454;51.984;9.838;2023-07-31T00:54:33;2.00;;;1.30;;
75820;SDS011;64454;51.984;9.838;2023-07-31T00:57:00;1.50;;;1.02;;
75820;SDS011;64454;51.984;9.838;2023-07-31T00:59:27;1.50;;;1.00;;
75820;SDS011;64454;51.984;9.838;2023-07-31T01:01:55;1.35;;;0.80;;
75820;SDS011;64454;51.984;9.838;2023-07-31T01:04:22;3.30;;;1.10;;
75820;SDS011;64454;51.984;9.838;2023-07-31T01:06:52;2.00;;;1.00;;
75820;SDS011;64454;51.984;9.838;2023-07-31T01:09:29;2.00;;;0.80;;
75820;SDS011;64454;51.984;9.838;2023-07-31T01:12:14;1.48;;;0.73;;
75820;SDS011;64454;51.984;9.838;2023-07-31T01:14:50;1.10;;;0.70;;
75820;SDS011;64454;51.984;9.838;2023-07-31T01:17:35;2.05;;;0.75;;
75820;SDS011;64454;51.984;9.838;2023-07-31T01:20:02;1.88;;;0.90;;
75820;SDS011;64454;51.984;9.838;2023-07-31T01:22:41;1.10;;;0.77;;
75820;SDS011;64454;51.984;9.838;2023-07-31T01:25:54;1.50;;;0.98;;
75820;SDS011;64454;51.984;9.838;2023-07-31T01:28:35;1.40;;;0.90;;
75820;SDS011;64454;51.984;9.838;2023-07-31T01:31:14;1.20;;;0.88;;
75820;SDS011;64454;51.984;9.838;2023-07-31T01:33:46;1.80;;;0.82;;
75820;SDS011;64454;51.984;9.838;2023-07-31T01:36:15;1.40;;;0.80;;
75820;SDS011;64454;51.984;9.838;2023-07-31T01:38:42;1.80;;;0.80;;
75820;SDS011;64454;51.984;9.838;2023-07-31T01:41:11;1.20;;;0.60;;
75820;SDS011;64454;51.984;9.838;2023-07-31T01:43:38;2.00;;;0.90;;
75820;SDS011;64454;51.984;9.838;2023-07-31T01:46:05;3.28;;;0.77;;
75820;SDS011;64454;51.984;9.838;2023-07-31T01:48:32;1.33;;;0.90;;
75820;SDS011;64454;51.984;9.838;2023-07-31T01:51:01;1.37;;;1.10;;
75820;SDS011;64454;51.984;9.838;2023-07-31T01:53:29;1.50;;;0.60;;
75820;SDS011;64454;51.984;9.838;2023-07-31T01:55:57;2.40;;;0.70;;
75820;SDS011;64454;51.984;9.838;2023-07-31T01:58:25;1.10;;;0.70;;
75820;SDS011;64454;51.984;9.838;2023-07-31T02:00:52;1.00;;;0.63;;
75820;SDS011;64454;51.984;9.838;2023-07-31T02:03:19;1.35;;;0.80;;
75820;SDS011;64454;51.984;9.838;2023-07-31T02:05:47;1.42;;;1.00;;
75820;SDS011;64454;51.984;9.838;2023-07-31T02:08:15;1.00;;;0.80;;
75820;SDS011;64454;51.984;9.838;2023-07-31T02:10:42;1.52;;;0.88;;
75820;SDS011;64454;51.984;9.838;2023-07-31T02:13:09;1.10;;;0.70;;
75820;SDS011;64454;51.984;9.838;2023-07-31T02:15:38;1.70;;;0.80;;
75820;SDS011;64454;51.984;9.838;2023-07-31T02:18:05;1.33;;;0.80;;
75820;SDS011;64454;51.984;9.838;2023-07-31T02:20:33;1.70;;;0.90;;
75820;SDS011;64454;51.984;9.838;2023-07-31T02:23:01;1.20;;;0.70;;
75820;SDS011;64454;51.984;9.838;2023-07-31T02:25:28;1.10;;;0.70;;
75820;SDS011;64454;51.984;9.838;2023-07-31T02:27:55;2.00;;;1.00;;
75820;SDS011;64454;51.984;9.838;2023-07-31T02:30:22;1.30;;;0.70;;
75820;SDS011;64454;51.984;9.838;2023-07-31T02:32:51;1.65;;;0.80;;
75820;SDS011;64454;51.984;9.838;2023-07-31T02:35:18;1.20;;;0.70;;
75820;SDS011;64454;51.984;9.838;2023-07-31T02:37:44;1.50;;;0.70;;
75820;SDS011;64454;51.984;9.838;2023-07-31T02:40:12;1.80;;;0.80;;
75820;SDS011;64454;51.984;9.838;2023-07-31T02:42:39;1.03;;;0.80;;
75820;SDS011;64454;51.984;9.838;2023-07-31T02:45:06;1.70;;;0.73;;
75820;SDS011;64454;51.984;9.838;2023-07-31T02:47:34;0.90;;;0.60;;
75820;SDS011;64454;51.984;9.838;2023-07-31T02:50:03;1.58;;;0.90;;
75820;SDS011;64454;51.984;9.838;2023-07-31T02:52:31;2.50;;;0.90;;
75820;SDS011;64454;51.984;9.838;2023-07-31T02:54:58;2.17;;;0.90;;
75820;SDS011;64454;51.984;9.838;2023-07-31T02:57:25;1.10;;;0.70;;
75820;SDS011;64454;51.984;9.838;2023-07-31T02:59:52;0.90;;;0.60;;
75820;SDS011;64454;51.984;9.838;2023-07-31T03:02:19;1.20;;;0.80;;
75820;SDS011;64454;51.984;9.838;2023-07-31T03:04:46;1.10;;;0.85;;
75820;SDS011;64454;51.984;9.838;2023-07-31T03:07:14;1.60;;;0.82;;
75820;SDS011;64454;51.984;9.838;2023-07-31T03:09:41;1.00;;;0.70;;
75820;SDS011;64454;51.984;9.838;2023-07-31T03:12:08;1.00;;;0.80;;
75820;SDS011;64454;51.984;9.838;2023-07-31T03:14:35;1.00;;;0.77;;
75820;SDS011;64454;51.984;9.838;2023-07-31T03:17:02;1.90;;;0.90;;
75820;SDS011;64454;51.984;9.838;2023-07-31T03:19:30;1.20;;;0.80;;
75820;SDS011;64454;51.984;9.838;2023-07-31T03:21:57;1.75;;;0.70;;
75820;SDS011;64454;51.984;9.838;2023-07-31T03:24:26;1.30;;;0.73;;
75820;SDS011;64454;51.984;9.838;2023-07-31T03:26:54;2.08;;;0.77;;
75820;SDS011;64454;51.984;9.838;2023-07-31T03:29:21;1.33;;;0.80;;
75820;SDS011;64454;51.984;9.838;2023-07-31T03:31:48;2.25;;;0.70;;
75820;SDS011;64454;51.984;9.838;2023-07-31T03:34:16;1.40;;;0.90;;
75820;SDS011;64454;51.984;9.838;2023-07-31T03:36:45;2.05;;;1.17;;
75820;SDS011;64454;51.984;9.838;2023-07-31T03:39:12;1.00;;;0.70;;
75820;SDS011;64454;51.984;9.838;2023-07-31T03:41:41;1.00;;;0.60;;
75820;SDS011;64454;51.984;9.838;2023-07-31T03:44:08;1.90;;;0.80;;
75820;SDS011;64454;51.984;9.838;2023-07-31T03:46:36;1.38;;;0.60;;
75820;SDS011;64454;51.984;9.838;2023-07-31T03:49:03;0.98;;;0.55;;
75820;SDS011;64454;51.984;9.838;2023-07-31T03:51:30;1.00;;;0.60;;
75820;SDS011;64454;51.984;9.838;2023-07-31T03:53:57;1.00;;;0.60;;
75820;SDS011;64454;51.984;9.838;2023-07-31T03:56:24;1.80;;;0.90;;
75820;SDS011;64454;51.984;9.838;2023-07-31T03:58:52;1.50;;;0.80;;
75820;SDS011;64454;51.984;9.838;2023-07-31T04:01:19;1.50;;;0.70;;
75820;SDS011;64454;51.984;9.838;2023-07-31T04:03:46;1.60;;;0.60;;
75820;SDS011;64454;51.984;9.838;2023-07-31T04:06:13;0.90;;;0.60;;
75820;SDS011;64454;51.984;9.838;2023-07-31T04:08:43;1.40;;;0.60;;
75820;SDS011;64454;51.984;9.838;2023-07-31T04:11:10;0.90;;;0.50;;
75820;SDS011;64454;51.984;9.838;2023-07-31T04:13:37;1.50;;;0.70;;
75820;SDS011;64454;51.984;9.838;2023-07-31T04:16:05;0.90;;;0.50;;
75820;SDS011;64454;51.984;9.838;2023-07-31T04:18:32;1.00;;;0.60;;
75820;SDS011;64454;51.984;9.838;2023-07-31T04:20:59;0.90;;;0.50;;
75820;SDS011;64454;51.984;9.838;2023-07-31T04:23:27;0.80;;;0.50;;
75820;SDS011;64454;51.984;9.838;2023-07-31T04:25:55;0.70;;;0.40;;
75820;SDS011;64454;51.984;9.838;2023-07-31T04:28:21;0.85;;;0.45;;
75820;SDS011;64454;51.984;9.838;2023-07-31T04:30:51;0.80;;;0.50;;
75820;SDS011;64454;51.984;9.838;2023-07-31T04:33:19;1.50;;;0.50;;
75820;SDS011;64454;51.984;9.838;2023-07-31T04:35:48;1.30;;;0.70;;
75820;SDS011;64454;51.984;9.838;2023-07-31T04:38:17;1.20;;;0.70;;
75820;SDS011;64454;51.984;9.838;2023-07-31T04:40:45;1.75;;;1.00;;
75820;SDS011;64454;51.984;9.838;2023-07-31T04:43:12;4.00;;;1.80;;
75820;SDS011;64454;51.984;9.838;2023-07-31T04:45:42;2.10;;;1.45;;
75820;SDS011;64454;51.984;9.838;2023-07-31T04:48:12;3.90;;;1.80;;
75820;SDS011;64454;51.984;9.838;2023-07-31T04:50:40;2.43;;;2.07;;
75820;SDS011;64454;51.984;9.838;2023-07-31T04:53:07;3.47;;;2.70;;
75820;SDS011;64454;51.984;9.838;2023-07-31T04:55:34;3.92;;;2.13;;
75820;SDS011;64454;51.984;9.838;2023-07-31T04:58:01;3.50;;;2.60;;
75820;SDS011;64454;51.984;9.838;2023-07-31T05:00:28;3.90;;;2.83;;
75820;SDS011;64454;51.984;9.838;2023-07-31T05:02:55;3.33;;;2.42;;
75820;SDS011;64454;51.984;9.838;2023-07-31T05:05:22;4.18;;;2.63;;
75820;SDS011;64454;51.984;9.838;2023-07-31T05:07:50;5.95;;;3.38;;
75820;SDS011;64454;51.984;9.838;2023-07-31T05:10:17;4.28;;;3.35;;
75820;SDS011;64454;51.984;9.838;2023-07-31T05:12:44;3.38;;;2.72;;
75820;SDS011;64454;51.984;9.838;2023-07-31T05:15:11;4.75;;;3.50;;
75820;SDS011;64454;51.984;9.838;2023-07-31T05:17:38;4.25;;;3.40;;
75820;SDS011;64454;51.984;9.838;2023-07-31T05:20:06;6.45;;;3.55;;
75820;SDS011;64454;51.984;9.838;2023-07-31T05:22:34;5.90;;;3.35;;
75820;SDS011;64454;51.984;9.838;2023-07-31T05:25:02;4.55;;;3.70;;
75820;SDS011;64454;51.984;9.838;2023-07-31T05:27:30;4.65;;;3.42;;
75820;SDS011;64454;51.984;9.838;2023-07-31T05:29:58;5.73;;;3.77;;
75820;SDS011;64454;51.984;9.838;2023-07-31T05:32:25;6.00;;;3.78;;
75820;SDS011;64454;51.984;9.838;2023-07-31T05:34:52;4.75;;;3.33;;
75820;SDS011;64454;51.984;9.838;2023-07-31T05:37:19;7.05;;;4.13;;
75820;SDS011;64454;51.984;9.838;2023-07-31T05:39:47;8.23;;;3.57;;
75820;SDS011;64454;51.984;9.838;2023-07-31T05:42:15;4.33;;;3.23;;
75820;SDS011;64454;51.984;9.838;2023-07-31T05:44:42;4.32;;;3.60;;
75820;SDS011;64454;51.984;9.838;2023-07-31T05:47:09;5.20;;;3.40;;
75820;SDS011;64454;51.984;9.838;2023-07-31T05:49:36;6.53;;;2.97;;
75820;SDS011;64454;51.984;9.838;2023-07-31T05:52:03;5.45;;;3.47;;
75820;SDS011;64454;51.984;9.838;2023-07-31T05:54:31;6.20;;;3.60;;
75820;SDS011;64454;51.984;9.838;2023-07-31T05:56:58;6.50;;;3.40;;
75820;SDS011;64454;51.984;9.838;2023-07-31T05:59:27;5.03;;;3.10;;
75820;SDS011;64454;51.984;9.838;2023-07-31T06:01:54;4.07;;;3.10;;
75820;SDS011;64454;51.984;9.838;2023-07-31T06:04:21;5.20;;;2.80;;
75820;SDS011;64454;51.984;9.838;2023-07-31T06:06:50;4.13;;;3.05;;
75820;SDS011;64454;51.984;9.838;2023-07-31T06:09:18;5.93;;;3.30;;
75820;SDS011;64454;51.984;9.838;2023-07-31T06:11:46;5.13;;;3.55;;
75820;SDS011;64454;51.984;9.838;2023-07-31T06:14:14;6.00;;;3.42;;
75820;SDS011;64454;51.984;9.838;2023-07-31T06:16:44;6.90;;;3.90;;
75820;SDS011;64454;51.984;9.838;2023-07-31T06:19:11;9.40;;;4.18;;
75820;SDS011;64454;51.984;9.838;2023-07-31T06:21:39;6.90;;;4.60;;
75820;SDS011;64454;51.984;9.838;2023-07-31T06:24:07;5.45;;;3.75;;
75820;SDS011;64454;51.984;9.838;2023-07-31T06:26:35;7.30;;;4.53;;
75820;SDS011;64454;51.984;9.838;2023-07-31T06:29:01;7.60;;;4.50;;
75820;SDS011;64454;51.984;9.838;2023-07-31T06:31:29;7.75;;;4.53;;
75820;SDS011;64454;51.984;9.838;2023-07-31T06:33:57;7.57;;;4.50;;
75820;SDS011;64454;51.984;9.838;2023-07-31T06:36:24;8.40;;;5.15;;
75820;SDS011;64454;51.984;9.838;2023-07-31T06:38:50;6.50;;;4.40;;
75820;SDS011;64454;51.984;9.838;2023-07-31T06:41:18;7.38;;;4.93;;
75820;SDS011;64454;51.984;9.838;2023-07-31T06:43:44;7.68;;;4.50;;
75820;SDS011;64454;51.984;9.838;2023-07-31T06:46:11;8.63;;;4.70;;
75820;SDS011;64454;51.984;9.838;2023-07-31T06:48:38;7.28;;;4.55;;
75820;SDS011;64454;51.984;9.838;2023-07-31T06:51:06;7.40;;;4.70;;
75820;SDS011;64454;51.984;9.838;2023-07-31T06:53:33;7.93;;;4.07;;
75820;SDS011;64454;51.984;9.838;2023-07-31T06:56:00;8.15;;;4.57;;
75820;SDS011;64454;51.984;9.838;2023-07-31T06:58:27;6.70;;;3.90;;
75820;SDS011;64454;51.984;9.838;2023-07-31T07:00:54;6.57;;;4.45;;
75820;SDS011;64454;51.984;9.838;2023-07-31T07:03:21;6.85;;;4.15;;
75820;SDS011;64454;51.984;9.838;2023-07-31T07:05:48;7.32;;;3.92;;
75820;SDS011;64454;51.984;9.838;2023-07-31T07:08:16;5.40;;;4.03;;
75820;SDS011;64454;51.984;9.838;2023-07-31T07:10:43;7.63;;;4.00;;
75820;SDS011;64454;51.984;9.838;2023-07-31T07:13:10;6.10;;;3.90;;
75820;SDS011;64454;51.984;9.838;2023-07-31T07:15:37;8.30;;;4.20;;
75820;SDS011;64454;51.984;9.838;2023-07-31T07:18:04;7.72;;;4.55;;
75820;SDS011;64454;51.984;9.838;2023-07-31T07:20:31;6.38;;;3.65;;
75820;SDS011;64454;51.984;9.838;2023-07-31T07:22:58;8.07;;;4.17;;
75820;SDS011;64454;51.984;9.838;2023-07-31T07:25:26;5.30;;;4.07;;
75820;SDS011;64454;51.984;9.838;2023-07-31T07:27:53;6.40;;;4.80;;
75820;SDS011;64454;51.984;9.838;2023-07-31T07:30:20;5.22;;;4.38;;
75820;SDS011;64454;51.984;9.838;2023-07-31T07:32:48;5.55;;;4.00;;
75820;SDS011;64454;51.984;9.838;2023-07-31T07:35:15;6.07;;;4.30;;
75820;SDS011;64454;51.984;9.838;2023-07-31T07:37:42;6.55;;;3.92;;
75820;SDS011;64454;51.984;9.838;2023-07-31T07:40:09;5.72;;;4.00;;
75820;SDS011;64454;51.984;9.838;2023-07-31T07:42:38;8.40;;;4.80;;
75820;SDS011;64454;51.984;9.838;2023-07-31T07:45:05;7.10;;;4.47;;
75820;SDS011;64454;51.984;9.838;2023-07-31T07:47:33;5.75;;;3.97;;
75820;SDS011;64454;51.984;9.838;2023-07-31T07:50:00;6.03;;;4.13;;
75820;SDS011;64454;51.984;9.838;2023-07-31T07:52:27;9.18;;;4.30;;
75820;SDS011;64454;51.984;9.838;2023-07-31T07:54:54;6.53;;;4.22;;
75820;SDS011;64454;51.984;9.838;2023-07-31T07:57:21;6.80;;;3.78;;
75820;SDS011;64454;51.984;9.838;2023-07-31T07:59:49;7.95;;;3.90;;
75820;SDS011;64454;51.984;9.838;2023-07-31T08:02:16;7.30;;;4.60;;
75820;SDS011;64454;51.984;9.838;2023-07-31T08:04:43;5.75;;;3.97;;
75820;SDS011;64454;51.984;9.838;2023-07-31T08:07:10;5.22;;;3.15;;
75820;SDS011;64454;51.984;9.838;2023-07-31T08:09:37;6.07;;;3.67;;
75820;SDS011;64454;51.984;9.838;2023-07-31T08:12:05;5.50;;;3.50;;
75820;SDS011;64454;51.984;9.838;2023-07-31T08:14:33;4.97;;;3.80;;
75820;SDS011;64454;51.984;9.838;2023-07-31T08:17:02;6.00;;;3.90;;
75820;SDS011;64454;51.984;9.838;2023-07-31T08:19:29;7.78;;;4.15;;
75820;SDS011;64454;51.984;9.838;2023-07-31T08:21:56;6.32;;;3.33;;
75820;SDS011;64454;51.984;9.838;2023-07-31T08:24:23;7.97;;;3.60;;
75820;SDS011;64454;51.984;9.838;2023-07-31T08:26:50;5.70;;;4.13;;
75820;SDS011;64454;51.984;9.838;2023-07-31T08:29:18;5.93;;;3.20;;
75820;SDS011;64454;51.984;9.838;2023-07-31T08:31:46;5.90;;;3.65;;
75820;SDS011;64454;51.984;9.838;2023-07-31T08:34:15;4.95;;;3.10;;
75820;SDS011;64454;51.984;9.838;2023-07-31T08:36:44;5.03;;;3.00;;
75820;SDS011;64454;51.984;9.838;2023-07-31T08:39:11;4.75;;;3.10;;
75820;SDS011;64454;51.984;9.838;2023-07-31T08:41:38;5.88;;;3.38;;
75820;SDS011;64454;51.984;9.838;2023-07-31T08:44:05;4.53;;;3.10;;
75820;SDS011;64454;51.984;9.838;2023-07-31T08:46:33;5.10;;;3.30;;
75820;SDS011;64454;51.984;9.838;2023-07-31T08:49:02;4.97;;;3.25;;
75820;SDS011;64454;51.984;9.838;2023-07-31T08:51:33;5.47;;;2.92;;
75820;SDS011;64454;51.984;9.838;2023-07-31T08:54:01;5.10;;;3.20;;
75820;SDS011;64454;51.984;9.838;2023-07-31T08:56:29;6.38;;;3.15;;
75820;SDS011;64454;51.984;9.838;2023-07-31T08:58:58;7.25;;;3.38;;
75820;SDS011;64454;51.984;9.838;2023-07-31T09:01:29;7.00;;;3.30;;
75820;SDS011;64454;51.984;9.838;2023-07-31T09:04:02;4.00;;;3.10;;
75820;SDS011;64454;51.984;9.838;2023-07-31T09:06:33;5.10;;;3.20;;
75820;SDS011;64454;51.984;9.838;2023-07-31T09:09:01;5.97;;;2.80;;
75820;SDS011;64454;51.984;9.838;2023-07-31T09:11:28;4.90;;;2.97;;
75820;SDS011;64454;51.984;9.838;2023-07-31T09:13:56;5.10;;;2.80;;
75820;SDS011;64454;51.984;9.838;2023-07-31T09:16:27;4.03;;;2.77;;
75820;SDS011;64454;51.984;9.838;2023-07-31T09:18:56;4.25;;;2.90;;
75820;SDS011;64454;51.984;9.838;2023-07-31T09:21:26;4.20;;;2.60;;
75820;SDS011;64454;51.984;9.838;2023-07-31T09:23:55;3.78;;;2.40;;
75820;SDS011;64454;51.984;9.838;2023-07-31T09:26:28;4.53;;;2.90;;
75820;SDS011;64454;51.984;9.838;2023-07-31T09:28:57;3.83;;;2.67;;
75820;SDS011;64454;51.984;9.838;2023-07-31T09:31:33;2.97;;;2.42;;
75820;SDS011;64454;51.984;9.838;2023-07-31T09:34:06;4.00;;;2.30;;
75820;SDS011;64454;51.984;9.838;2023-07-31T09:36:38;2.90;;;2.50;;
75820;SDS011;64454;51.984;9.838;2023-07-31T09:39:09;3.45;;;2.33;;
75820;SDS011;64454;51.984;9.838;2023-07-31T09:41:38;2.50;;;2.03;;
75820;SDS011;64454;51.984;9.838;2023-07-31T09:44:06;3.55;;;2.00;;
75820;SDS011;64454;51.984;9.838;2023-07-31T09:46:34;2.60;;;2.10;;
75820;SDS011;64454;51.984;9.838;2023-07-31T09:49:03;2.75;;;2.22;;
75820;SDS011;64454;51.984;9.838;2023-07-31T09:51:35;3.97;;;2.38;;
75820;SDS011;64454;51.984;9.838;2023-07-31T09:54:10;2.40;;;2.00;;
75820;SDS011;64454;51.984;9.838;2023-07-31T09:56:41;2.93;;;2.10;;
75820;SDS011;64454;51.984;9.838;2023-07-31T09:59:11;2.87;;;2.10;;
75820;SDS011;64454;51.984;9.838;2023-07-31T10:01:42;5.00;;;2.60;;
75820;SDS011;64454;51.984;9.838;2023-07-31T10:04:11;3.67;;;2.00;;
75820;SDS011;64454;51.984;9.838;2023-07-31T10:06:40;3.30;;;2.40;;
75820;SDS011;64454;51.984;9.838;2023-07-31T10:09:11;2.75;;;2.28;;
75820;SDS011;64454;51.984;9.838;2023-07-31T10:11:46;2.38;;;1.98;;
75820;SDS011;64454;51.984;9.838;2023-07-31T10:14:21;3.45;;;2.50;;
75820;SDS011;64454;51.984;9.838;2023-07-31T10:16:50;3.10;;;2.30;;
75820;SDS011;64454;51.984;9.838;2023-07-31T10:19:19;3.80;;;2.55;;
75820;SDS011;64454;51.984;9.838;2023-07-31T10:21:48;3.13;;;2.25;;
75820;SDS011;64454;51.984;9.838;2023-07-31T10:24:18;3.08;;;2.22;;
75820;SDS011;64454;51.984;9.838;2023-07-31T10:26:47;3.30;;;2.40;;
75820;SDS011;64454;51.984;9.838;2023-07-31T10:29:17;3.00;;;1.92;;
75820;SDS011;64454;51.984;9.838;2023-07-31T10:31:49;3.45;;;2.20;;
75820;SDS011;64454;51.984;9.838;2023-07-31T10:34:19;2.92;;;2.00;;
75820;SDS011;64454;51.984;9.838;2023-07-31T10:36:46;4.75;;;2.42;;
75820;SDS011;64454;51.984;9.838;2023-07-31T10:42:09;3.00;;;1.95;;
75820;SDS011;64454;51.984;9.838;2023-07-31T10:44:37;3.42;;;2.20;;
75820;SDS011;64454;51.984;9.838;2023-07-31T10:47:10;4.05;;;2.28;;
75820;SDS011;64454;51.984;9.838;2023-07-31T10:49:41;2.80;;;2.20;;
75820;SDS011;64454;51.984;9.838;2023-07-31T10:52:12;2.72;;;2.10;;
75820;SDS011;64454;51.984;9.838;2023-07-31T10:54:41;4.03;;;2.20;;
75820;SDS011;64454;51.984;9.838;2023-07-31T10:57:18;3.10;;;2.20;;
75820;SDS011;64454;51.984;9.838;2023-07-31T10:59:47;4.80;;;2.30;;
75820;SDS011;64454;51.984;9.838;2023-07-31T11:02:24;3.55;;;2.40;;
75820;SDS011;64454;51.984;9.838;2023-07-31T11:05:07;4.53;;;2.55;;
75820;SDS011;64454;51.984;9.838;2023-07-31T11:07:47;2.53;;;2.17;;
75820;SDS011;64454;51.984;9.838;2023-07-31T11:10:19;3.00;;;2.40;;
75820;SDS011;64454;51.984;9.838;2023-07-31T11:12:50;2.60;;;2.00;;
75820;SDS011;64454;51.984;9.838;2023-07-31T11:15:17;5.00;;;2.20;;
75820;SDS011;64454;51.984;9.838;2023-07-31T11:17:44;2.40;;;1.92;;
75820;SDS011;64454;51.984;9.838;2023-07-31T11:20:11;3.20;;;2.13;;
75820;SDS011;64454;51.984;9.838;2023-07-31T11:22:38;2.73;;;1.70;;
75820;SDS011;64454;51.984;9.838;2023-07-31T11:25:06;2.87;;;2.10;;
75820;SDS011;64454;51.984;9.838;2023-07-31T11:27:39;3.30;;;2.30;;
75820;SDS011;64454;51.984;9.838;2023-07-31T11:30:07;3.80;;;2.40;;
75820;SDS011;64454;51.984;9.838;2023-07-31T11:32:35;2.40;;;1.80;;
75820;SDS011;64454;51.984;9.838;2023-07-31T11:35:03;2.60;;;1.80;;
75820;SDS011;64454;51.984;9.838;2023-07-31T11:37:39;2.97;;;2.00;;
75820;SDS011;64454;51.984;9.838;2023-07-31T11:40:07;2.60;;;2.00;;
75820;SDS011;64454;51.984;9.838;2023-07-31T11:42:35;2.95;;;2.10;;
75820;SDS011;64454;51.984;9.838;2023-07-31T11:45:04;2.30;;;1.77;;
75820;SDS011;64454;51.984;9.838;2023-07-31T11:47:33;2.10;;;1.80;;
75820;SDS011;64454;51.984;9.838;2023-07-31T11:50:02;3.78;;;1.90;;
75820;SDS011;64454;51.984;9.838;2023-07-31T11:52:32;2.22;;;1.52;;
75820;SDS011;64454;51.984;9.838;2023-07-31T11:55:05;2.90;;;1.90;;
75820;SDS011;64454;51.984;9.838;2023-07-31T11:57:36;2.30;;;1.77;;
75820;SDS011;64454;51.984;9.838;2023-07-31T12:00:07;2.40;;;1.70;;
75820;SDS011;64454;51.984;9.838;2023-07-31T12:02:38;3.97;;;1.90;;
75820;SDS011;64454;51.984;9.838;2023-07-31T12:05:06;2.97;;;2.17;;
75820;SDS011;64454;51.984;9.838;2023-07-31T12:07:43;2.30;;;1.80;;
75820;SDS011;64454;51.984;9.838;2023-07-31T12:10:27;2.85;;;1.90;;
75820;SDS011;64454;51.984;9.838;2023-07-31T12:12:57;3.20;;;1.70;;
75820;SDS011;64454;51.984;9.838;2023-07-31T12:15:40;2.50;;;2.00;;
75820;SDS011;64454;51.984;9.838;2023-07-31T12:18:10;2.50;;;2.00;;
75820;SDS011;64454;51.984;9.838;2023-07-31T12:20:42;3.35;;;1.80;;
75820;SDS011;64454;51.984;9.838;2023-07-31T12:23:14;2.53;;;1.80;;
75820;SDS011;64454;51.984;9.838;2023-07-31T12:25:42;3.60;;;1.70;;
75820;SDS011;64454;51.984;9.838;2023-07-31T12:28:09;2.70;;;1.63;;
75820;SDS011;64454;51.984;9.838;2023-07-31T12:30:38;2.50;;;1.92;;
75820;SDS011;64454;51.984;9.838;2023-07-31T12:33:10;4.05;;;2.00;;
75820;SDS011;64454;51.984;9.838;2023-07-31T12:35:41;2.50;;;1.90;;
75820;SDS011;64454;51.984;9.838;2023-07-31T12:38:11;2.30;;;1.42;;
75820;SDS011;64454;51.984;9.838;2023-07-31T12:40:38;2.38;;;1.60;;
75820;SDS011;64454;51.984;9.838;2023-07-31T12:43:06;2.30;;;1.40;;
75820;SDS011;64454;51.984;9.838;2023-07-31T12:45:34;2.17;;;1.50;;
75820;SDS011;64454;51.984;9.838;2023-07-31T12:48:03;3.40;;;1.20;;
75820;SDS011;64454;51.984;9.838;2023-07-31T12:50:30;1.90;;;1.40;;
75820;SDS011;64454;51.984;9.838;2023-07-31T12:52:57;2.72;;;1.05;;
75820;SDS011;64454;51.984;9.838;2023-07-31T12:55:24;2.47;;;1.10;;
75820;SDS011;64454;51.984;9.838;2023-07-31T12:57:51;1.50;;;0.82;;
75820;SDS011;64454;51.984;9.838;2023-07-31T13:00:18;1.90;;;0.80;;
75820;SDS011;64454;51.984;9.838;2023-07-31T13:02:45;2.67;;;1.00;;
75820;SDS011;64454;51.984;9.838;2023-07-31T13:05:13;1.70;;;0.80;;
75820;SDS011;64454;51.984;9.838;2023-07-31T13:07:41;1.50;;;0.90;;
75820;SDS011;64454;51.984;9.838;2023-07-31T13:10:08;1.75;;;0.75;;
75820;SDS011;64454;51.984;9.838;2023-07-31T13:12:35;1.40;;;0.90;;
75820;SDS011;64454;51.984;9.838;2023-07-31T13:15:02;1.27;;;0.77;;
75820;SDS011;64454;51.984;9.838;2023-07-31T13:17:30;1.47;;;0.80;;
75820;SDS011;64454;51.984;9.838;2023-07-31T13:19:57;1.50;;;0.80;;
75820;SDS011;64454;51.984;9.838;2023-07-31T13:22:26;1.03;;;0.60;;
75820;SDS011;64454;51.984;9.838;2023-07-31T13:24:53;1.17;;;0.70;;
75820;SDS011;64454;51.984;9.838;2023-07-31T13:27:20;1.55;;;1.00;;
75820;SDS011;64454;51.984;9.838;2023-07-31T13:29:47;1.20;;;0.52;;
75820;SDS011;64454;51.984;9.838;2023-07-31T13:32:15;1.00;;;0.60;;
75820;SDS011;64454;51.984;9.838;2023-07-31T13:34:43;0.90;;;0.60;;
75820;SDS011;64454;51.984;9.838;2023-07-31T13:37:10;1.20;;;0.70;;
75820;SDS011;64454;51.984;9.838;2023-07-31T13:39:38;1.50;;;0.80;;
75820;SDS011;64454;51.984;9.838;2023-07-31T13:42:06;1.50;;;0.60;;
75820;SDS011;64454;51.984;9.838;2023-07-31T13:44:37;2.70;;;0.90;;
75820;SDS011;64454;51.984;9.838;2023-07-31T13:47:04;1.30;;;0.70;;
75820;SDS011;64454;51.984;9.838;2023-07-31T13:49:32;1.10;;;0.70;;
75820;SDS011;64454;51.984;9.838;2023-07-31T13:52:00;1.10;;;0.60;;
75820;SDS011;64454;51.984;9.838;2023-07-31T13:54:27;1.10;;;0.70;;
75820;SDS011;64454;51.984;9.838;2023-07-31T13:56:55;1.90;;;0.98;;
75820;SDS011;64454;51.984;9.838;2023-07-31T13:59:22;1.38;;;0.90;;
75820;SDS011;64454;51.984;9.838;2023-07-31T14:01:49;1.50;;;0.90;;
75820;SDS011;64454;51.984;9.838;2023-07-31T14:04:17;1.77;;;0.90;;
75820;SDS011;64454;51.984;9.838;2023-07-31T14:06:46;1.67;;;1.00;;
75820;SDS011;64454;51.984;9.838;2023-07-31T14:09:16;1.90;;;1.10;;
75820;SDS011;64454;51.984;9.838;2023-07-31T14:11:45;1.77;;;1.00;;
75820;SDS011;64454;51.984;9.838;2023-07-31T14:14:14;1.10;;;0.80;;
75820;SDS011;64454;51.984;9.838;2023-07-31T14:16:44;1.15;;;0.77;;
75820;SDS011;64454;51.984;9.838;2023-07-31T14:19:11;1.30;;;1.20;;
75820;SDS011;64454;51.984;9.838;2023-07-31T14:21:38;1.10;;;0.70;;
75820;SDS011;64454;51.984;9.838;2023-07-31T14:24:05;2.20;;;0.95;;
75820;SDS011;64454;51.984;9.838;2023-07-31T14:26:32;1.40;;;0.90;;
75820;SDS011;64454;51.984;9.838;2023-07-31T14:28:59;1.40;;;0.90;;
75820;SDS011;64454;51.984;9.838;2023-07-31T14:31:27;2.20;;;0.80;;
75820;SDS011;64454;51.984;9.838;2023-07-31T14:33:54;3.05;;;1.00;;
75820;SDS011;64454;51.984;9.838;2023-07-31T14:36:21;1.67;;;1.25;;
75820;SDS011;64454;51.984;9.838;2023-07-31T14:38:48;1.52;;;1.10;;
75820;SDS011;64454;51.984;9.838;2023-07-31T14:41:15;1.50;;;0.90;;
75820;SDS011;64454;51.984;9.838;2023-07-31T14:43:42;1.30;;;0.90;;
75820;SDS011;64454;51.984;9.838;2023-07-31T14:46:09;1.80;;;1.20;;
75820;SDS011;64454;51.984;9.838;2023-07-31T14:48:37;1.30;;;0.90;;
75820;SDS011;64454;51.984;9.838;2023-07-31T14:51:04;1.63;;;1.00;;
75820;SDS011;64454;51.984;9.838;2023-07-31T14:53:30;1.27;;;1.00;;
75820;SDS011;64454;51.984;9.838;2023-07-31T14:55:57;1.65;;;0.90;;
75820;SDS011;64454;51.984;9.838;2023-07-31T14:58:24;1.27;;;1.00;;